Time;durP1;ratioP1;P1;durP2;ratioP2;P2;SDS_P1;SDS_P2;PMS_P1;PMS_P2;Temp;Humidity;BMP_temperature;BMP_pressure;BME280_temperature;BME280_humidity;BME280_pressure;Samples;Min_cycle;Max_cycle;Signal;HPM_P1;HPM_P2
2022/05/11 00:01:41;;;;;;;5.03;3.13;;;18.30;99.90;;;;;;5073003;28;20202;-84
2022/05/11 00:04:10;;;;;;;3.22;2.35;;;18.30;99.90;;;;;;5072140;28;20633;-71
2022/05/11 00:06:38;;;;;;;2.40;2.20;;;18.20;99.90;;;;;;5072261;28;20249;-77
2022/05/11 00:09:06;;;;;;;3.42;2.40;;;18.30;99.90;;;;;;5072683;28;20203;-82
2022/05/11 00:11:34;;;;;;;3.28;2.97;;;18.30;99.90;;;;;;5072548;28;20202;-77
2022/05/11 00:14:02;;;;;;;2.83;2.63;;;18.30;99.90;;;;;;5072334;28;20206;-70
2022/05/11 00:16:30;;;;;;;3.85;3.55;;;18.20;99.90;;;;;;5071927;28;20202;-78
2022/05/11 00:18:58;;;;;;;2.70;2.50;;;18.20;99.90;;;;;;5072009;28;20206;-77
2022/05/11 00:21:25;;;;;;;2.97;2.47;;;18.10;99.90;;;;;;5071783;28;20206;-78
2022/05/11 00:23:53;;;;;;;3.47;3.15;;;18.00;99.90;;;;;;5072079;28;20248;-78
2022/05/11 00:26:20;;;;;;;2.75;2.53;;;17.90;99.90;;;;;;5071313;28;20641;-78
2022/05/11 00:28:47;;;;;;;2.65;2.45;;;17.90;99.90;;;;;;5071974;28;20677;-78
2022/05/11 00:31:14;;;;;;;5.60;3.42;;;17.90;99.90;;;;;;5071554;28;20234;-79
2022/05/11 00:33:41;;;;;;;2.55;2.38;;;17.70;99.90;;;;;;5071816;28;20202;-77
2022/05/11 00:36:12;;;;;;;5.75;3.05;;;17.60;99.90;;;;;;5071519;28;20236;-74
2022/05/11 00:38:40;;;;;;;3.10;2.78;;;17.60;99.90;;;;;;5071658;28;20206;-78
2022/05/11 00:41:07;;;;;;;3.08;2.88;;;17.50;99.90;;;;;;5071702;28;20293;-76
2022/05/11 00:43:38;;;;;;;4.55;3.58;;;17.40;99.90;;;;;;5072246;28;20206;-78
2022/05/11 00:46:18;;;;;;;3.72;3.22;;;17.40;99.90;;;;;;5071955;28;20285;-77
2022/05/11 00:51:36;;;;;;;2.60;2.40;;;17.30;99.90;;;;;;5071496;28;20237;-78
2022/05/11 00:54:05;;;;;;;5.35;3.03;;;17.30;99.90;;;;;;5071901;28;20230;-80
2022/05/11 00:56:34;;;;;;;3.47;3.17;;;17.20;99.90;;;;;;5071448;28;20241;-78
2022/05/11 00:59:06;;;;;;;3.45;3.15;;;17.30;99.90;;;;;;5071683;28;20214;-81
2022/05/11 01:01:34;;;;;;;3.72;2.85;;;17.10;99.90;;;;;;5071489;28;20234;-80
2022/05/11 01:04:06;;;;;;;3.22;2.97;;;17.10;99.90;;;;;;5071297;28;20279;-81
2022/05/11 01:06:35;;;;;;;4.80;3.05;;;17.10;99.90;;;;;;5071574;28;20296;-79
2022/05/11 01:09:02;;;;;;;4.15;3.03;;;17.10;99.90;;;;;;5071623;28;20232;-78
2022/05/11 01:11:30;;;;;;;6.70;2.75;;;17.10;99.90;;;;;;5070857;28;20291;-81
2022/05/11 01:13:58;;;;;;;3.60;2.60;;;17.10;99.90;;;;;;5070934;28;20206;-70
2022/05/11 01:16:25;;;;;;;6.88;3.45;;;17.00;99.90;;;;;;5070512;28;20198;-71
2022/05/11 01:18:52;;;;;;;2.92;2.72;;;17.10;99.90;;;;;;5071397;28;20259;-76
2022/05/11 01:21:21;;;;;;;3.45;2.78;;;17.00;99.90;;;;;;5070859;28;20206;-77
2022/05/11 01:23:56;;;;;;;3.08;2.75;;;17.00;99.90;;;;;;5071159;28;20285;-71
2022/05/11 01:26:25;;;;;;;3.55;2.58;;;16.90;99.90;;;;;;5070151;28;20241;-76
2022/05/11 01:28:54;;;;;;;2.67;2.47;;;16.90;99.90;;;;;;5070824;28;20690;-77
2022/05/11 01:31:22;;;;;;;4.80;2.95;;;16.90;99.90;;;;;;5070217;28;20234;-76
2022/05/11 01:33:51;;;;;;;5.18;3.83;;;16.80;99.90;;;;;;5071191;28;20224;-77
2022/05/11 01:36:25;;;;;;;3.03;2.72;;;16.80;99.90;;;;;;5070546;28;20230;-72
2022/05/11 01:38:54;;;;;;;3.75;2.80;;;16.80;99.90;;;;;;5070792;28;20215;-77
2022/05/11 01:41:26;;;;;;;4.40;3.22;;;16.70;99.90;;;;;;5070388;28;20206;-78
2022/05/11 01:43:53;;;;;;;7.50;4.18;;;16.70;99.90;;;;;;5070874;28;20546;-74
2022/05/11 01:46:21;;;;;;;4.43;3.97;;;16.80;99.90;;;;;;5070177;28;20210;-74
2022/05/11 01:48:48;;;;;;;7.05;3.75;;;16.70;99.90;;;;;;5070658;28;20271;-74
2022/05/11 01:51:17;;;;;;;3.65;3.35;;;16.70;99.90;;;;;;5070317;28;20287;-71
2022/05/11 01:53:45;;;;;;;5.13;4.07;;;16.70;99.90;;;;;;5070611;28;20228;-74
2022/05/11 01:56:14;;;;;;;3.08;2.88;;;16.60;99.90;;;;;;5070458;28;20210;-74
2022/05/11 01:58:42;;;;;;;5.95;2.90;;;16.50;99.90;;;;;;5070914;28;20649;-74
2022/05/11 02:01:09;;;;;;;3.30;3.05;;;16.40;99.90;;;;;;5070149;28;20267;-71
2022/05/11 02:03:36;;;;;;;6.28;3.60;;;16.50;99.90;;;;;;5070690;28;20248;-70
2022/05/11 02:08:48;;;;;;;3.28;2.97;;;16.50;99.90;;;;;;5070383;28;20206;-69
2022/05/11 02:11:16;;;;;;;2.88;2.65;;;16.50;99.90;;;;;;5070308;28;20278;-74
2022/05/11 02:13:45;;;;;;;3.35;3.10;;;16.60;99.90;;;;;;5070559;28;20264;-73
2022/05/11 02:16:12;;;;;;;3.30;2.63;;;16.50;99.90;;;;;;5069747;28;20202;-71
2022/05/11 02:18:39;;;;;;;5.90;2.83;;;16.40;99.90;;;;;;5070385;28;20241;-74
2022/05/11 02:21:08;;;;;;;4.85;3.40;;;16.30;99.90;;;;;;5070659;28;20665;-69
2022/05/11 02:23:36;;;;;;;3.08;2.78;;;16.30;99.90;;;;;;5070919;28;20210;-73
2022/05/11 02:26:03;;;;;;;5.57;3.40;;;16.30;99.90;;;;;;5070710;28;20234;-71
2022/05/11 02:28:30;;;;;;;3.63;3.33;;;16.30;99.90;;;;;;5070138;28;20689;-73
2022/05/11 02:31:00;;;;;;;3.60;3.10;;;16.20;99.90;;;;;;5070322;28;20265;-74
2022/05/11 02:33:27;;;;;;;4.07;3.22;;;16.20;99.90;;;;;;5069895;28;20210;-69
2022/05/11 02:35:55;;;;;;;3.45;3.15;;;16.10;99.90;;;;;;5070381;28;20727;-75
2022/05/11 02:38:25;;;;;;;3.00;2.70;;;16.10;99.90;;;;;;5069683;28;20242;-74
2022/05/11 02:40:52;;;;;;;7.45;3.42;;;16.20;99.90;;;;;;5073720;28;20264;-74
2022/05/11 02:43:20;;;;;;;3.05;2.85;;;16.30;99.90;;;;;;5073438;28;20206;-72
2022/05/11 02:45:48;;;;;;;3.10;2.67;;;16.30;99.90;;;;;;5073882;28;20206;-72
2022/05/11 02:48:19;;;;;;;3.25;2.95;;;16.30;99.90;;;;;;5073470;28;20238;-74
2022/05/11 02:50:49;;;;;;;3.97;3.00;;;16.30;99.90;;;;;;5073818;28;20265;-69
2022/05/11 02:53:16;;;;;;;3.40;3.10;;;16.20;99.90;;;;;;5073870;28;20234;-78
2022/05/11 02:55:47;;;;;;;3.20;2.92;;;16.20;99.90;;;;;;5074120;28;20238;-75
2022/05/11 02:58:16;;;;;;;5.43;2.65;;;16.20;99.90;;;;;;5073140;28;20198;-76
2022/05/11 03:00:45;;;;;;;3.45;3.15;;;16.10;99.90;;;;;;5073627;28;20230;-77
2022/05/11 03:03:14;;;;;;;3.35;3.05;;;16.00;99.90;;;;;;5073458;28;20202;-75
2022/05/11 03:05:43;;;;;;;4.70;3.00;;;15.90;99.90;;;;;;5073497;28;20251;-75
2022/05/11 03:08:10;;;;;;;6.07;4.40;;;16.00;99.90;;;;;;5073209;28;20237;-67
2022/05/11 03:10:39;;;;;;;5.40;3.10;;;16.00;99.90;;;;;;5073503;28;20265;-67
2022/05/11 03:13:06;;;;;;;3.88;3.35;;;16.10;99.90;;;;;;5073281;28;20202;-68
2022/05/11 03:15:33;;;;;;;4.15;2.70;;;16.00;99.90;;;;;;5073898;28;20214;-74
2022/05/11 03:18:00;;;;;;;3.30;2.97;;;16.00;99.90;;;;;;5073416;28;20794;-76
2022/05/11 03:20:27;;;;;;;4.07;3.75;;;16.00;99.90;;;;;;5073150;28;20656;-77
2022/05/11 03:22:56;;;;;;;5.50;3.38;;;16.00;99.90;;;;;;5073503;28;20237;-82
2022/05/11 03:25:25;;;;;;;3.22;2.92;;;16.00;99.90;;;;;;5073322;28;20658;-83
2022/05/11 03:27:53;;;;;;;5.70;3.38;;;15.80;99.90;;;;;;5073363;28;20208;-83
2022/05/11 03:30:21;;;;;;;3.88;2.85;;;15.70;99.90;;;;;;5073184;28;20260;-75
2022/05/11 03:35:32;;;;;;;3.67;3.38;;;15.80;99.90;;;;;;5073330;28;20235;-82
2022/05/11 03:38:00;;;;;;;3.67;3.35;;;15.80;99.90;;;;;;5073157;28;20700;-79
2022/05/11 03:40:27;;;;;;;3.58;3.28;;;15.70;99.90;;;;;;5072547;28;20715;-77
2022/05/11 03:42:54;;;;;;;3.72;3.42;;;15.80;99.90;;;;;;5073289;28;20226;-81
2022/05/11 03:45:24;;;;;;;3.40;3.15;;;15.70;99.90;;;;;;5072986;28;20237;-80
2022/05/11 03:47:51;;;;;;;4.22;3.92;;;15.90;99.90;;;;;;5073307;28;20206;-74
2022/05/11 03:50:22;;;;;;;5.63;3.90;;;15.70;99.90;;;;;;5072315;28;20247;-80
2022/05/11 03:52:49;;;;;;;5.13;4.03;;;15.70;99.90;;;;;;5073090;28;20234;-78
2022/05/11 03:55:17;;;;;;;4.07;3.55;;;15.60;99.90;;;;;;5072524;28;20805;-82
2022/05/11 03:57:44;;;;;;;7.00;4.10;;;15.60;99.90;;;;;;5072755;28;20245;-80
2022/05/11 04:00:14;;;;;;;3.58;3.28;;;15.70;99.90;;;;;;5072325;28;20236;-70
2022/05/11 04:02:41;;;;;;;4.80;4.40;;;15.70;99.90;;;;;;5072820;28;20218;-74
2022/05/11 04:05:09;;;;;;;4.85;4.40;;;15.80;99.90;;;;;;5072063;28;20206;-73
2022/05/11 04:07:36;;;;;;;5.55;4.35;;;15.70;99.90;;;;;;5072707;28;20199;-69
2022/05/11 04:10:04;;;;;;;6.80;4.68;;;15.70;99.90;;;;;;5072878;28;20240;-77
2022/05/11 04:12:34;;;;;;;5.43;4.93;;;15.70;99.90;;;;;;5072302;28;20299;-77
2022/05/11 04:15:01;;;;;;;5.32;4.53;;;15.70;99.90;;;;;;5072615;28;20639;-77
2022/05/11 04:17:28;;;;;;;4.68;4.35;;;15.70;99.90;;;;;;5071858;28;20636;-74
2022/05/11 04:19:56;;;;;;;5.57;4.28;;;15.70;99.90;;;;;;5072171;28;20198;-77
2022/05/11 04:22:23;;;;;;;5.57;5.07;;;15.70;99.90;;;;;;5071826;28;20241;-78
2022/05/11 04:24:50;;;;;;;5.07;4.57;;;15.70;99.90;;;;;;5071910;28;20743;-75
2022/05/11 04:27:17;;;;;;;5.30;4.75;;;15.60;99.90;;;;;;5071646;28;20255;-76
2022/05/11 04:29:45;;;;;;;7.43;4.53;;;15.60;99.90;;;;;;5072032;28;20206;-79
2022/05/11 04:32:14;;;;;;;5.68;5.07;;;15.50;99.90;;;;;;5071404;28;20273;-77
2022/05/11 04:34:42;;;;;;;5.35;4.80;;;15.50;99.90;;;;;;5072220;28;20206;-76
2022/05/11 04:37:11;;;;;;;5.13;4.22;;;15.40;99.90;;;;;;5071799;28;20257;-83
2022/05/11 04:39:39;;;;;;;5.53;4.15;;;15.40;99.90;;;;;;5071956;28;20233;-75
2022/05/11 04:42:07;;;;;;;5.40;4.55;;;15.40;99.90;;;;;;5071953;28;20206;-69
2022/05/11 04:44:34;;;;;;;4.35;3.95;;;15.50;99.90;;;;;;5071952;28;20202;-76
2022/05/11 04:47:07;;;;;;;7.07;4.68;;;15.40;99.90;;;;;;5071755;28;20230;-77
2022/05/11 04:49:34;;;;;;;6.13;5.38;;;15.30;99.90;;;;;;5071957;28;20205;-76
2022/05/11 04:52:07;;;;;;;6.07;4.65;;;15.30;99.90;;;;;;5071730;28;20783;-74
2022/05/11 04:54:36;;;;;;;5.38;4.88;;;15.30;99.90;;;;;;5071693;28;20210;-78
2022/05/11 04:57:03;;;;;;;5.57;4.47;;;15.30;99.90;;;;;;5071415;28;20584;-69
2022/05/11 04:59:30;;;;;;;6.35;5.00;;;15.30;99.90;;;;;;5071136;28;20246;-69
2022/05/11 05:01:59;;;;;;;8.20;4.35;;;15.40;99.90;;;;;;5070638;28;20207;-76
2022/05/11 05:04:28;;;;;;;6.05;4.85;;;15.40;99.90;;;;;;5070854;28;20202;-79
2022/05/11 05:06:55;;;;;;;6.25;4.53;;;15.40;99.90;;;;;;5071293;28;20206;-83
2022/05/11 05:09:22;;;;;;;6.15;5.55;;;15.40;99.90;;;;;;5070744;28;20295;-74
2022/05/11 05:11:49;;;;;;;7.00;5.65;;;15.50;99.90;;;;;;5070998;28;20261;-79
2022/05/11 05:14:16;;;;;;;5.20;4.43;;;15.50;99.90;;;;;;5070760;28;20202;-81
2022/05/11 05:16:44;;;;;;;5.80;5.30;;;15.50;99.90;;;;;;5071403;28;20233;-81
2022/05/11 05:19:11;;;;;;;5.50;5.00;;;15.50;99.90;;;;;;5070831;28;20290;-82
2022/05/11 05:21:39;;;;;;;6.28;5.68;;;15.50;99.90;;;;;;5071106;28;20202;-80
2022/05/11 05:24:07;;;;;;;6.25;5.18;;;15.50;99.90;;;;;;5070869;28;20198;-72
2022/05/11 05:26:34;;;;;;;6.88;5.22;;;15.60;99.90;;;;;;5071040;28;20237;-80
2022/05/11 05:31:46;;;;;;;6.75;6.05;;;15.60;99.90;;;;;;5071065;28;20229;-82
2022/05/11 05:34:13;;;;;;;7.53;5.28;;;15.60;99.90;;;;;;5070708;28;20229;-81
2022/05/11 05:36:42;;;;;;;6.57;5.47;;;15.70;99.90;;;;;;5070881;28;20727;-78
2022/05/11 05:39:09;;;;;;;6.35;5.65;;;15.70;99.90;;;;;;5070392;28;20212;-69
2022/05/11 05:41:36;;;;;;;7.18;5.78;;;15.70;99.90;;;;;;5071265;28;20230;-80
2022/05/11 05:44:04;;;;;;;6.15;5.57;;;15.80;99.90;;;;;;5071182;28;20259;-71
2022/05/11 05:46:31;;;;;;;5.28;4.78;;;15.90;99.90;;;;;;5070671;28;20213;-79
2022/05/11 05:48:58;;;;;;;5.15;4.65;;;15.90;99.90;;;;;;5070923;28;20237;-75
2022/05/11 05:51:26;;;;;;;6.32;5.55;;;16.00;99.90;;;;;;5070272;28;20283;-76
2022/05/11 05:53:57;;;;;;;6.35;4.65;;;16.00;99.90;;;;;;5070590;28;20202;-71
2022/05/11 05:56:24;;;;;;;5.30;4.80;;;16.10;99.90;;;;;;5070439;28;20309;-68
2022/05/11 05:58:55;;;;;;;6.85;5.18;;;16.20;99.90;;;;;;5071288;28;20260;-71
2022/05/11 06:01:21;;;;;;;6.97;4.93;;;16.30;99.90;;;;;;5082857;28;20641;-72
2022/05/11 06:03:48;;;;;;;6.10;5.10;;;16.40;99.90;;;;;;5074608;28;20251;-70
2022/05/11 06:06:15;;;;;;;5.80;3.80;;;16.50;99.90;;;;;;5082098;28;20267;-69
2022/05/11 06:08:42;;;;;;;5.47;4.18;;;16.60;99.90;;;;;;5090452;28;20286;-69
2022/05/11 06:11:11;;;;;;;5.65;5.15;;;16.70;99.90;;;;;;5090005;28;20216;-67
2022/05/11 06:13:39;;;;;;;6.90;4.05;;;16.80;99.90;;;;;;5092636;28;20205;-69
2022/05/11 06:16:12;;;;;;;5.18;4.32;;;16.90;99.90;;;;;;5094691;28;20201;-67
2022/05/11 06:18:41;;;;;;;5.78;4.28;;;17.10;99.90;;;;;;5089887;28;20231;-67
2022/05/11 06:21:08;;;;;;;7.78;4.13;;;17.20;99.90;;;;;;5093756;28;20208;-67
2022/05/11 06:23:36;;;;;;;5.40;4.05;;;17.20;99.90;;;;;;5094793;28;20262;-67
2022/05/11 06:26:03;;;;;;;4.22;3.92;;;17.30;99.90;;;;;;5094594;28;20209;-71
2022/05/11 06:28:31;;;;;;;10.27;4.25;;;17.40;99.90;;;;;;5093756;28;20669;-67
2022/05/11 06:30:58;;;;;;;7.47;4.20;;;17.50;99.90;;;;;;5093984;28;20205;-68
2022/05/11 06:33:25;;;;;;;7.95;4.10;;;17.60;99.90;;;;;;5093918;28;20278;-69
2022/05/11 06:35:52;;;;;;;7.07;3.80;;;17.70;99.90;;;;;;5094097;28;20282;-69
2022/05/11 06:38:19;;;;;;;5.30;4.03;;;17.80;99.90;;;;;;5093026;28;20214;-71
2022/05/11 06:40:46;;;;;;;4.05;3.65;;;17.80;99.90;;;;;;5093563;28;20259;-69
2022/05/11 06:43:13;;;;;;;5.63;3.67;;;17.90;99.90;;;;;;5093675;28;20205;-71
2022/05/11 06:45:42;;;;;;;4.00;3.28;;;18.00;99.90;;;;;;5094051;28;20220;-69
2022/05/11 06:48:10;;;;;;;5.57;3.33;;;18.20;99.90;;;;;;5093223;28;20208;-69
2022/05/11 06:50:37;;;;;;;4.07;3.22;;;18.20;99.90;;;;;;5093635;28;20665;-68
2022/05/11 06:53:10;;;;;;;2.78;2.58;;;18.40;99.90;;;;;;5093870;28;20237;-68
2022/05/11 07:01:10;;;;;;;3.92;3.30;;;18.60;99.90;;;;;;5081980;28;20351;-67
2022/05/11 07:03:37;;;;;;;4.00;3.55;;;18.70;99.90;;;;;;5091207;28;20217;-68
2022/05/11 07:06:05;;;;;;;3.15;2.85;;;18.80;99.90;;;;;;5091054;28;20731;-67
2022/05/11 07:08:37;;;;;;;3.72;3.08;;;18.90;99.90;;;;;;5093624;28;20209;-69
2022/05/11 07:13:48;;;;;;;3.20;2.90;;;19.00;99.90;;;;;;5093766;28;20574;-68
2022/05/11 07:16:18;;;;;;;5.47;2.92;;;19.00;99.90;;;;;;5093120;28;20250;-71
2022/05/11 07:18:45;;;;;;;6.18;3.08;;;19.30;99.90;;;;;;5093539;28;20212;-70
2022/05/11 07:21:12;;;;;;;5.38;2.40;;;19.50;99.90;;;;;;5093563;28;20251;-72
2022/05/11 07:23:39;;;;;;;2.88;2.60;;;19.60;99.90;;;;;;5093687;28;20616;-71
2022/05/11 07:26:06;;;;;;;4.30;3.90;;;19.60;99.90;;;;;;5093253;28;20202;-72
2022/05/11 07:28:33;;;;;;;4.50;3.28;;;19.60;99.90;;;;;;5094025;28;20213;-68
2022/05/11 07:31:00;;;;;;;3.78;2.75;;;19.60;99.90;;;;;;5093454;28;20259;-71
2022/05/11 07:33:31;;;;;;;7.05;2.97;;;20.20;99.90;;;;;;5092525;28;20240;-69
2022/05/11 07:35:57;;;;;;;4.93;2.55;;;20.30;99.90;;;;;;5093453;28;20201;-71
2022/05/11 07:38:24;;;;;;;10.82;4.22;;;20.40;99.90;;;;;;5093115;28;20250;-70
2022/05/11 07:40:51;;;;;;;2.78;2.45;;;20.50;99.90;;;;;;5092908;28;20231;-70
2022/05/11 07:43:20;;;;;;;3.00;2.60;;;20.40;99.90;;;;;;5087108;28;20322;-69
2022/05/11 07:45:48;;;;;;;4.25;3.03;;;20.50;99.90;;;;;;5074828;28;20218;-69
2022/05/11 07:48:15;;;;;;;2.88;2.20;;;20.50;99.90;;;;;;5091064;28;20251;-67
2022/05/11 07:50:43;;;;;;;3.15;2.63;;;20.80;99.90;;;;;;5084711;28;20753;-69
2022/05/11 07:53:10;;;;;;;4.60;2.53;;;20.90;99.90;;;;;;5090783;28;20299;-70
2022/05/11 07:55:37;;;;;;;4.32;3.20;;;20.60;99.90;;;;;;5091589;28;20621;-71
2022/05/11 08:00:49;;;;;;;3.20;2.90;;;20.70;99.90;;;;;;5092772;28;20274;-74
2022/05/11 08:03:16;;;;;;;3.15;2.42;;;20.90;99.90;;;;;;5092043;28;20210;-74
2022/05/11 08:05:44;;;;;;;4.03;2.45;;;20.90;99.90;;;;;;5092431;28;20699;-73
2022/05/11 08:08:11;;;;;;;3.83;2.88;;;21.00;99.90;;;;;;5092027;28;20250;-73
2022/05/11 08:10:40;;;;;;;4.68;2.60;;;21.30;99.90;;;;;;5092463;28;20217;-74
2022/05/11 08:13:07;;;;;;;3.60;3.03;;;21.50;99.90;;;;;;5092194;28;20233;-72
2022/05/11 08:15:36;;;;;;;2.92;2.63;;;21.60;99.90;;;;;;5092590;28;20197;-69
2022/05/11 08:18:05;;;;;;;8.75;2.97;;;21.60;99.90;;;;;;5092773;28;20258;-73
2022/05/11 08:20:35;;;;;;;4.70;2.33;;;21.60;99.90;;;;;;5092640;28;20205;-72
2022/05/11 08:23:05;;;;;;;3.17;2.70;;;21.70;99.90;;;;;;5092399;28;20205;-69
2022/05/11 08:25:34;;;;;;;7.00;2.53;;;21.90;99.90;;;;;;5091850;28;20205;-75
2022/05/11 08:28:02;;;;;;;4.25;2.70;;;22.10;99.90;;;;;;5092739;28;20206;-73
2022/05/11 08:33:26;;;;;;;3.38;2.92;;;22.60;99.90;;;;;;5055292;28;20252;-73
2022/05/11 08:35:57;;;;;;;3.58;2.40;;;22.50;99.90;;;;;;5092219;28;20300;-70
2022/05/11 08:38:28;;;;;;;3.72;3.35;;;22.50;99.90;;;;;;5091672;28;20208;-74
2022/05/11 08:40:59;;;;;;;2.35;2.15;;;22.30;99.90;;;;;;5091832;28;20205;-74
2022/05/11 08:43:28;;;;;;;2.83;2.55;;;22.60;99.90;;;;;;5091736;28;20212;-74
2022/05/11 08:46:04;;;;;;;3.25;2.45;;;22.70;99.90;;;;;;5091765;28;20668;-74
2022/05/11 08:48:40;;;;;;;3.28;2.72;;;22.40;99.90;;;;;;5091692;28;20201;-70
2022/05/11 08:51:10;;;;;;;5.13;2.80;;;22.80;99.90;;;;;;5091797;28;20582;-73
2022/05/11 08:53:41;;;;;;;3.70;3.13;;;23.10;99.90;;;;;;5091604;28;20719;-70
2022/05/11 08:56:15;;;;;;;3.88;2.63;;;23.50;99.90;;;;;;5091309;28;20208;-70
2022/05/11 08:58:49;;;;;;;4.65;2.47;;;23.60;99.90;;;;;;5091719;28;20205;-74
2022/05/11 09:01:23;;;;;;;2.75;2.00;;;24.00;99.90;;;;;;5090810;28;20235;-74
2022/05/11 09:03:54;;;;;;;5.10;3.55;;;24.00;99.90;;;;;;5091443;28;20673;-74
2022/05/11 09:06:24;;;;;;;3.80;2.70;;;25.00;99.90;;;;;;5091157;28;20205;-70
2022/05/11 09:08:53;;;;;;;3.55;2.30;;;25.70;99.90;;;;;;5091811;28;20288;-72
2022/05/11 09:11:27;;;;;;;5.40;2.58;;;25.50;99.90;;;;;;5091255;28;20213;-71
2022/05/11 09:13:56;;;;;;;2.38;2.10;;;25.00;99.90;;;;;;5091425;28;20232;-68
2022/05/11 09:16:25;;;;;;;4.65;2.38;;;24.70;99.90;;;;;;5090852;28;20209;-67
2022/05/11 09:18:52;;;;;;;3.58;2.67;;;25.60;99.90;;;;;;5091349;28;20711;-71
2022/05/11 09:21:29;;;;;;;3.45;3.15;;;25.10;99.90;;;;;;5091043;28;20259;-72
2022/05/11 09:24:22;;;;;;;2.30;2.03;;;25.70;99.90;;;;;;5091264;28;20543;-72
2022/05/11 09:27:03;;;;;;;3.60;3.00;;;28.30;99.90;;;;;;5090988;28;20292;-69
2022/05/11 09:29:37;;;;;;;2.45;2.17;;;28.50;99.90;;;;;;5090646;28;20202;-72
2022/05/11 09:32:26;;;;;;;4.18;2.63;;;27.80;99.90;;;;;;5091295;28;20228;-70
2022/05/11 09:34:53;;;;;;;3.22;2.38;;;29.00;99.90;;;;;;5091223;28;20288;-74
2022/05/11 09:37:31;;;;;;;6.78;2.75;;;28.70;99.90;;;;;;5090073;28;20201;-73
2022/05/11 09:40:07;;;;;;;3.13;2.88;;;29.60;99.90;;;;;;5089557;28;20209;-70
2022/05/11 09:42:35;;;;;;;2.95;2.58;;;28.90;99.90;;;;;;5088915;28;20198;-70
2022/05/11 09:45:04;;;;;;;5.95;3.13;;;28.30;99.90;;;;;;5079642;28;20211;-75
2022/05/11 09:47:33;;;;;;;3.25;2.60;;;28.40;99.90;;;;;;5086565;28;20292;-72
2022/05/11 09:50:17;;;;;;;3.65;2.40;;;30.00;99.90;;;;;;5091125;28;20289;-73
2022/05/11 09:52:45;;;;;;;3.13;2.50;;;30.90;99.90;;;;;;5089987;28;20742;-73
2022/05/11 09:55:24;;;;;;;2.97;2.33;;;29.30;99.90;;;;;;5085082;28;20202;-73
2022/05/11 09:57:58;;;;;;;4.88;2.55;;;28.20;99.90;;;;;;5089340;28;20201;-74
2022/05/11 10:00:29;;;;;;;4.15;3.25;;;28.40;99.90;;;;;;5089866;28;20205;-71
2022/05/11 10:02:59;;;;;;;4.40;2.75;;;28.50;99.90;;;;;;5090834;28;20205;-72
2022/05/11 10:05:28;;;;;;;3.70;2.72;;;30.20;99.90;;;;;;5090469;28;20732;-71
2022/05/11 10:08:00;;;;;;;3.05;2.70;;;31.10;99.90;;;;;;5090575;28;20660;-71
2022/05/11 10:10:35;;;;;;;3.65;2.42;;;32.50;99.90;;;;;;5090153;28;20201;-72
2022/05/11 10:13:12;;;;;;;5.55;3.13;;;32.50;99.90;;;;;;5090835;28;20264;-72
2022/05/11 10:24:22;;;;;;;3.70;2.70;;;32.40;99.90;;;;;;5090253;28;20200;-70
2022/05/11 10:27:00;;;;;;;3.15;2.95;;;30.60;99.90;;;;;;5090621;28;20205;-74
2022/05/11 10:29:38;;;;;;;2.45;2.25;;;31.20;99.90;;;;;;5089964;28;20213;-73
2022/05/11 10:32:12;;;;;;;3.03;2.83;;;30.00;99.90;;;;;;5090920;28;20260;-73
2022/05/11 10:34:51;;;;;;;2.85;2.55;;;27.10;99.90;;;;;;5090408;28;20232;-74
2022/05/11 10:37:30;;;;;;;3.42;2.50;;;26.80;99.90;;;;;;5089958;28;20570;-70
2022/05/11 10:40:10;;;;;;;5.97;3.00;;;26.50;99.90;;;;;;5090265;28;20248;-71
2022/05/11 10:42:44;;;;;;;5.15;2.88;;;26.60;99.90;;;;;;5090257;28;20201;-71
2022/05/11 10:45:18;;;;;;;7.20;2.72;;;26.60;99.90;;;;;;5090021;28;20258;-70
2022/05/11 10:48:04;;;;;;;5.95;2.80;;;26.30;99.90;;;;;;5090167;28;20210;-70
2022/05/11 10:50:44;;;;;;;4.25;2.33;;;26.50;99.90;;;;;;5090201;28;20213;-71
2022/05/11 10:53:25;;;;;;;4.00;2.00;;;26.60;99.90;;;;;;5090006;28;20258;-70
2022/05/11 10:56:04;;;;;;;4.63;2.22;;;26.80;99.90;;;;;;5090112;28;20197;-71
2022/05/11 10:58:56;;;;;;;3.20;2.85;;;26.90;99.90;;;;;;5090242;28;20209;-71
2022/05/11 11:01:26;;;;;;;5.38;2.75;;;27.10;99.90;;;;;;5092934;28;20244;-71
2022/05/11 11:04:14;;;;;;;3.58;2.78;;;27.00;99.90;;;;;;5093793;28;20259;-71
2022/05/11 11:07:13;;;;;;;5.50;3.13;;;27.00;99.90;;;;;;5093827;28;20538;-71
2022/05/11 11:09:59;;;;;;;3.92;2.90;;;27.50;99.90;;;;;;5093820;28;20596;-71
2022/05/11 11:12:41;;;;;;;3.00;2.80;;;27.20;99.90;;;;;;5090545;28;20263;-70
2022/05/11 11:15:13;;;;;;;3.50;2.95;;;27.50;99.90;;;;;;5093598;28;20202;-71
2022/05/11 11:17:42;;;;;;;4.88;2.55;;;27.70;99.90;;;;;;5093685;28;20201;-71
2022/05/11 11:20:11;;;;;;;3.55;2.30;;;27.20;99.90;;;;;;5093310;28;20220;-71
2022/05/11 11:23:12;;;;;;;3.45;2.65;;;27.30;99.90;;;;;;5087999;28;20206;-71
2022/05/11 11:25:52;;;;;;;8.68;3.28;;;27.30;99.90;;;;;;5075936;28;20210;-72
2022/05/11 11:28:21;;;;;;;2.50;2.30;;;27.50;99.90;;;;;;5092845;28;20274;-71
2022/05/11 11:31:19;;;;;;;4.38;3.10;;;27.50;99.90;;;;;;5093444;28;20258;-72
2022/05/11 11:34:22;;;;;;;3.97;2.70;;;27.60;99.90;;;;;;5093079;28;20225;-70
2022/05/11 11:36:50;;;;;;;3.08;2.58;;;27.70;99.90;;;;;;5071717;28;20286;-71
2022/05/11 11:39:55;;;;;;;3.50;2.85;;;27.70;99.90;;;;;;5092664;28;20267;-72
2022/05/11 11:42:36;;;;;;;3.35;2.60;;;27.60;99.90;;;;;;5068844;28;20206;-71
2022/05/11 11:45:07;;;;;;;3.30;2.70;;;27.80;99.90;;;;;;5073006;28;20676;-69
2022/05/11 11:48:00;;;;;;;3.38;2.28;;;27.90;99.90;;;;;;5072837;28;20465;-69
2022/05/11 11:50:45;;;;;;;4.43;2.95;;;28.20;99.90;;;;;;5072456;28;20204;-73
2022/05/11 11:53:21;;;;;;;4.18;2.78;;;28.00;99.90;;;;;;5072097;28;20230;-70
2022/05/11 11:55:48;;;;;;;9.82;2.85;;;28.00;99.90;;;;;;5072530;28;20194;-72
2022/05/11 11:58:26;;;;;;;3.35;2.28;;;28.00;99.90;;;;;;5072650;28;20256;-73
2022/05/11 12:01:11;;;;;;;2.53;2.33;;;28.00;99.90;;;;;;5072618;28;20198;-72
2022/05/11 12:03:52;;;;;;;5.28;3.38;;;28.00;99.90;;;;;;5072390;28;20730;-69
2022/05/11 12:17:32;;;;;;;3.00;2.80;;;28.50;99.90;;;;;;5084350;28;20212;-67
2022/05/11 12:20:08;;;;;;;4.13;2.85;;;28.30;99.90;;;;;;5092112;28;20275;-74
2022/05/11 12:22:43;;;;;;;5.53;2.97;;;28.30;99.90;;;;;;5092812;28;20284;-71
2022/05/11 12:25:29;;;;;;;5.15;2.60;;;28.70;99.90;;;;;;5091533;28;20246;-82
2022/05/11 12:27:58;;;;;;;3.38;3.08;;;28.60;99.90;;;;;;5092696;28;20642;-76
2022/05/11 12:30:29;;;;;;;3.45;2.63;;;28.60;99.90;;;;;;5091439;28;20205;-73
2022/05/11 12:32:59;;;;;;;7.63;2.90;;;28.40;99.90;;;;;;5092176;28;20255;-74
2022/05/11 12:35:31;;;;;;;2.75;2.17;;;28.60;99.90;;;;;;5091552;28;20633;-72
2022/05/11 12:38:00;;;;;;;2.75;2.30;;;28.70;99.90;;;;;;5091028;28;20661;-74
2022/05/11 12:40:28;;;;;;;3.10;2.38;;;28.30;99.90;;;;;;5090530;28;20217;-73
2022/05/11 12:42:57;;;;;;;4.35;2.05;;;28.60;99.90;;;;;;5091837;28;20255;-73
2022/05/11 12:45:31;;;;;;;3.70;2.28;;;28.80;99.90;;;;;;5091611;28;20201;-75
2022/05/11 12:48:00;;;;;;;2.80;2.33;;;28.80;99.90;;;;;;5085942;28;20247;-74
2022/05/11 12:50:31;;;;;;;3.83;2.90;;;28.80;99.90;;;;;;5073972;28;20234;-74
2022/05/11 12:53:07;;;;;;;4.72;2.72;;;28.70;99.90;;;;;;5090281;28;20205;-71
2022/05/11 12:55:36;;;;;;;9.60;2.97;;;28.70;99.90;;;;;;5087041;28;20209;-72
2022/05/11 12:58:03;;;;;;;4.75;3.03;;;28.80;99.90;;;;;;5091944;28;20202;-74
2022/05/11 13:00:33;;;;;;;3.38;2.70;;;28.90;99.90;;;;;;5090794;28;20255;-73
2022/05/11 13:03:00;;;;;;;3.72;2.58;;;29.00;99.90;;;;;;5091545;28;20236;-71
2022/05/11 13:05:32;;;;;;;3.13;2.40;;;29.30;99.90;;;;;;5091152;28;20268;-73
2022/05/11 13:08:03;;;;;;;2.92;2.08;;;28.80;99.90;;;;;;5091029;28;20205;-74
2022/05/11 13:10:33;;;;;;;3.38;2.10;;;29.10;99.90;;;;;;5091025;28;20287;-73
2022/05/11 13:13:04;;;;;;;2.55;2.15;;;29.10;99.90;;;;;;5091267;28;20669;-72
2022/05/11 13:15:38;;;;;;;3.80;2.10;;;29.10;99.90;;;;;;5091244;28;20278;-72
2022/05/11 13:18:08;;;;;;;2.92;2.50;;;28.80;99.90;;;;;;5091262;28;20228;-73
2022/05/11 13:20:39;;;;;;;6.10;2.53;;;28.40;99.90;;;;;;5091363;28;20209;-72
2022/05/11 13:23:19;;;;;;;2.53;2.33;;;28.60;99.90;;;;;;5090435;28;20210;-72
2022/05/11 13:25:49;;;;;;;3.70;3.17;;;28.90;99.90;;;;;;5091096;28;20255;-70
2022/05/11 13:28:23;;;;;;;3.38;2.72;;;28.80;99.90;;;;;;5088643;28;20250;-70
2022/05/11 13:30:51;;;;;;;5.25;1.95;;;29.10;99.90;;;;;;5079797;28;20205;-72
2022/05/11 13:33:43;;;;;;;10.77;2.95;;;29.10;99.90;;;;;;5085408;28;20622;-70
2022/05/11 13:36:19;;;;;;;4.60;2.33;;;29.10;99.90;;;;;;5080060;28;20274;-73
2022/05/11 13:38:51;;;;;;;5.25;2.92;;;29.10;99.90;;;;;;5090564;28;20213;-71
2022/05/11 13:41:23;;;;;;;3.50;2.80;;;29.00;99.90;;;;;;5089625;28;20688;-72
2022/05/11 13:43:54;;;;;;;5.10;2.53;;;28.60;99.90;;;;;;5089916;28;20201;-71
2022/05/11 13:49:33;;;;;;;2.67;2.00;;;29.30;99.90;;;;;;5090308;28;20246;-73
2022/05/11 13:52:05;;;;;;;2.63;2.42;;;29.40;99.90;;;;;;5090484;28;20208;-71